Terminal Aerodrome Forecast
Issued by NWS Cheyenne, WY

Home | Current Version | Previous Version | Text Only | Print | Product List | Glossary On
Versions: 1 2 3 4 5 6 7 8 9 10 11 12 13 14 15
000
FTUS45 KCYS 240520
TAFCYS
TAF
KCYS 240520Z 2406/2506 22009KT P6SM BKN200
     FM241500 27014G24KT P6SM SKC
     FM250100 24008KT P6SM SKC=

USA.gov is the U.S. government's official web portal to all federal, state and local government web resources and services.